createdAt,value
2019-05-09T00:01:05.073Z,8.67
2019-05-09T00:03:33.507Z,9.10
2019-05-09T00:06:00.999Z,6.67
2019-05-09T00:08:28.404Z,9.23
2019-05-09T00:10:55.792Z,10.10
2019-05-09T00:13:23.710Z,8.60
2019-05-09T00:15:51.381Z,12.03
2019-05-09T00:18:18.791Z,8.93
2019-05-09T00:20:51.003Z,10.60
2019-05-09T00:23:18.475Z,10.37
2019-05-09T00:25:45.816Z,13.30
2019-05-09T00:28:13.654Z,10.23
2019-05-09T00:30:54.748Z,9.07
2019-05-09T00:33:23.709Z,8.47
2019-05-09T00:35:53.325Z,9.60
2019-05-09T00:38:23.843Z,8.63
2019-05-09T00:40:55.938Z,9.77
2019-05-09T00:43:19.847Z,10.27
2019-05-09T00:46:00.797Z,7.97
2019-05-09T00:48:29.845Z,9.83
2019-05-09T00:50:57.207Z,10.03
2019-05-09T00:53:24.519Z,8.97
2019-05-09T00:55:53.033Z,8.63
2019-05-09T00:58:20.541Z,7.37
2019-05-09T01:00:47.947Z,8.63
2019-05-09T01:03:15.250Z,7.90
2019-05-09T01:05:43.672Z,9.37
2019-05-09T01:08:11.067Z,9.47
2019-05-09T01:10:38.485Z,10.97
2019-05-09T01:13:05.834Z,8.73
2019-05-09T01:15:33.574Z,10.37
2019-05-09T01:18:01.067Z,8.83
2019-05-09T01:20:28.395Z,8.87
2019-05-09T01:22:55.712Z,6.70
2019-05-09T01:25:24.002Z,7.90
2019-05-09T01:27:53.684Z,7.77
2019-05-09T01:30:20.664Z,8.40
2019-05-09T01:32:58.739Z,8.70
2019-05-09T01:35:26.072Z,8.43
2019-05-09T01:37:53.996Z,6.57
2019-05-09T01:40:23.786Z,9.07
2019-05-09T01:42:50.480Z,12.43
2019-05-09T01:45:17.956Z,6.70
2019-05-09T01:47:45.308Z,7.07
2019-05-09T01:50:14.044Z,7.60
2019-05-09T01:52:43.772Z,10.10
2019-05-09T01:55:10.634Z,8.17
2019-05-09T01:57:37.979Z,8.60
2019-05-09T02:00:05.454Z,6.50
2019-05-09T02:02:33.821Z,6.23
2019-05-09T02:05:01.233Z,6.30
2019-05-09T02:07:28.558Z,5.37
2019-05-09T02:09:55.934Z,7.67
2019-05-09T02:12:24.636Z,5.23
2019-05-09T02:14:54.324Z,7.53
2019-05-09T02:17:23.338Z,6.70
2019-05-09T02:19:50.689Z,8.50
2019-05-09T02:22:34.484Z,8.97
2019-05-09T02:25:04.262Z,6.10
2019-05-09T02:27:33.243Z,5.37
2019-05-09T02:30:00.799Z,7.17
2019-05-09T02:32:28.189Z,7.33
2019-05-09T02:34:55.531Z,6.03
2019-05-09T02:37:22.846Z,5.47
2019-05-09T02:39:50.185Z,9.03
2019-05-09T02:42:19.635Z,6.40
2019-05-09T02:44:49.248Z,5.87
2019-05-09T02:47:18.016Z,7.83
2019-05-09T02:49:48.398Z,6.53
2019-05-09T02:52:14.641Z,5.10
2019-05-09T02:54:42.047Z,7.43
2019-05-09T02:57:09.739Z,7.17
2019-05-09T02:59:38.987Z,7.10
2019-05-09T03:02:23.103Z,7.50
2019-05-09T03:04:50.486Z,7.33
2019-05-09T03:07:18.867Z,6.17
2019-05-09T03:09:48.090Z,5.70
2019-05-09T03:12:26.822Z,6.80
2019-05-09T03:14:44.277Z,7.50
2019-05-09T03:17:11.668Z,7.73
2019-05-09T03:19:39.027Z,6.73
2019-05-09T03:22:13.643Z,5.97
2019-05-09T03:24:41.107Z,8.10
2019-05-09T03:27:10.139Z,5.90
2019-05-09T03:29:39.820Z,7.70
2019-05-09T03:32:09.098Z,6.70
2019-05-09T03:34:37.289Z,9.43
2019-05-09T03:37:04.751Z,14.80
2019-05-09T03:39:32.111Z,9.47
2019-05-09T03:41:59.449Z,9.93
2019-05-09T03:44:28.245Z,9.97
2019-05-09T03:46:58.158Z,8.63
2019-05-09T03:49:25.619Z,7.00
2019-05-09T03:51:52.967Z,10.33
2019-05-09T03:54:20.283Z,9.43
2019-05-09T03:56:51.809Z,10.77
2019-05-09T03:59:19.140Z,10.50
2019-05-09T04:01:49.543Z,9.03
2019-05-09T04:04:17.315Z,7.00
2019-05-09T04:06:44.615Z,8.17
2019-05-09T04:09:12.064Z,8.70
2019-05-09T04:11:39.491Z,9.13
2019-05-09T04:14:08.488Z,8.10
2019-05-09T04:16:37.954Z,10.40
2019-05-09T04:19:04.845Z,10.07
2019-05-09T04:21:32.189Z,10.73
2019-05-09T04:24:01.036Z,9.67
2019-05-09T04:26:39.215Z,12.30
2019-05-09T04:29:08.044Z,17.37
2019-05-09T04:31:35.583Z,11.40
2019-05-09T04:34:02.905Z,11.73
2019-05-09T04:36:39.014Z,11.80
2019-05-09T04:39:07.700Z,16.83
2019-05-09T04:41:35.109Z,12.37
2019-05-09T04:44:05.179Z,12.93
2019-05-09T04:46:31.429Z,10.40
2019-05-09T04:49:02.456Z,11.20
2019-05-09T04:51:28.390Z,11.97
2019-05-09T04:53:58.293Z,12.13
2019-05-09T04:56:27.916Z,11.93
2019-05-09T04:58:55.386Z,11.73
2019-05-09T05:01:40.906Z,12.37
2019-05-09T05:04:08.532Z,13.60
2019-05-09T05:06:35.874Z,14.97
2019-05-09T05:09:07.736Z,15.87
2019-05-09T05:11:34.674Z,13.67
2019-05-09T05:14:02.088Z,13.87
2019-05-09T05:16:29.434Z,13.50
2019-05-09T05:18:58.390Z,18.03
2019-05-09T05:21:28.010Z,14.80
2019-05-09T05:23:57.701Z,15.17
2019-05-09T05:26:27.561Z,15.83
2019-05-09T05:28:54.113Z,13.70
2019-05-09T05:31:21.540Z,13.80
2019-05-09T05:33:57.776Z,15.33
2019-05-09T05:36:27.806Z,20.17
2019-05-09T05:38:54.967Z,18.20
2019-05-09T05:41:22.394Z,17.05
2019-05-09T05:43:49.756Z,14.83
2019-05-09T05:46:28.533Z,15.50
2019-05-09T05:48:57.816Z,16.13
2019-05-09T05:51:27.556Z,15.83
2019-05-09T05:53:54.555Z,18.07
2019-05-09T05:56:21.868Z,13.87
2019-05-09T05:58:49.209Z,18.00
2019-05-09T06:01:18.955Z,16.87
2019-05-09T06:03:48.110Z,15.90
2019-05-09T06:06:17.373Z,20.00
2019-05-09T06:08:44.306Z,18.17
2019-05-09T06:11:12.364Z,16.40
2019-05-09T06:13:54.373Z,18.23
2019-05-09T06:16:11.601Z,15.83
2019-05-09T06:18:38.898Z,20.50
2019-05-09T06:21:08.668Z,18.47
2019-05-09T06:23:37.308Z,17.00
2019-05-09T06:26:04.281Z,18.13
2019-05-09T06:28:31.590Z,16.80
2019-05-09T06:30:58.938Z,15.20
2019-05-09T06:33:28.388Z,17.70
2019-05-09T06:35:55.255Z,18.53
2019-05-09T06:38:22.609Z,14.13
2019-05-09T06:40:50.017Z,19.67
2019-05-09T06:43:18.725Z,22.40
2019-05-09T06:46:02.655Z,19.63
2019-05-09T06:48:29.974Z,16.57
2019-05-09T06:50:57.738Z,17.80
2019-05-09T06:53:26.793Z,19.77
2019-05-09T06:55:54.104Z,18.70
2019-05-09T06:58:34.838Z,14.97
2019-05-09T07:01:07.668Z,15.70
2019-05-09T07:03:37.522Z,18.67
2019-05-09T07:06:09.579Z,16.20
2019-05-09T07:08:44.379Z,13.47
2019-05-09T07:11:12.053Z,16.57
2019-05-09T07:13:39.412Z,11.70
2019-05-09T07:16:08.839Z,13.00
2019-05-09T07:18:38.154Z,13.90
2019-05-09T07:21:05.073Z,16.50
2019-05-09T07:23:32.389Z,14.37
2019-05-09T07:26:17.683Z,14.80
2019-05-09T07:28:48.218Z,16.20
2019-05-09T07:31:21.704Z,15.87
2019-05-09T07:33:50.667Z,15.00
2019-05-09T07:36:18.918Z,14.90
2019-05-09T07:38:47.808Z,13.83
2019-05-09T07:41:17.633Z,18.77
2019-05-09T07:43:44.381Z,17.93
2019-05-09T07:46:17.717Z,16.70
2019-05-09T07:48:48.338Z,21.40
2019-05-09T07:51:17.951Z,18.47
2019-05-09T07:53:44.969Z,17.47
2019-05-09T07:56:12.319Z,17.27
2019-05-09T07:58:39.679Z,18.07
2019-05-09T08:01:08.632Z,15.80
2019-05-09T08:03:38.400Z,22.33
2019-05-09T08:06:05.229Z,13.07
2019-05-09T08:08:32.541Z,15.40
2019-05-09T08:11:00.070Z,16.00
2019-05-09T08:13:29.031Z,14.23
2019-05-09T08:15:58.384Z,13.73
2019-05-09T08:18:28.036Z,15.33
2019-05-09T08:20:54.634Z,15.73
2019-05-09T08:23:22.061Z,14.43
2019-05-09T08:25:50.310Z,14.83
2019-05-09T08:28:19.983Z,13.17
2019-05-09T08:30:48.438Z,14.67
2019-05-09T08:33:15.619Z,14.50
2019-05-09T08:35:49.867Z,14.67
2019-05-09T08:38:13.670Z,14.10
2019-05-09T08:40:41.026Z,16.07
2019-05-09T08:43:08.324Z,15.07
2019-05-09T08:45:38.045Z,13.93
2019-05-09T08:48:06.330Z,14.33
2019-05-09T08:50:41.457Z,12.93
2019-05-09T08:53:08.793Z,12.27
2019-05-09T08:55:38.242Z,10.63
2019-05-09T08:58:05.090Z,16.20
2019-05-09T09:00:32.480Z,13.00
2019-05-09T09:02:59.900Z,14.60
2019-05-09T09:05:28.912Z,10.03
2019-05-09T09:07:57.763Z,13.73
2019-05-09T09:10:25.456Z,10.83
2019-05-09T09:12:52.863Z,10.93
2019-05-09T09:15:20.243Z,11.83
2019-05-09T09:17:49.128Z,11.00
2019-05-09T09:20:18.187Z,14.03
2019-05-09T09:22:47.834Z,11.20
2019-05-09T09:25:14.826Z,12.10
2019-05-09T09:27:42.267Z,14.50
2019-05-09T09:30:20.458Z,13.00
2019-05-09T09:32:38.911Z,13.30
2019-05-09T09:35:08.200Z,13.17
2019-05-09T09:37:47.655Z,14.90
2019-05-09T09:40:08.436Z,13.10
2019-05-09T09:42:34.918Z,13.93
2019-05-09T09:45:02.200Z,15.10
2019-05-09T09:47:29.550Z,18.50
2019-05-09T09:49:59.526Z,22.47
2019-05-09T09:52:29.064Z,20.30
2019-05-09T09:54:54.969Z,19.73
2019-05-09T09:57:22.449Z,29.83
2019-05-09T09:59:54.242Z,22.63
2019-05-09T10:02:23.207Z,20.63
2019-05-09T10:04:50.539Z,23.03
2019-05-09T10:07:19.007Z,17.53
2019-05-09T10:09:47.998Z,19.33
2019-05-09T10:12:18.031Z,19.13
2019-05-09T10:14:46.180Z,18.13
2019-05-09T10:17:24.682Z,19.80
2019-05-09T10:19:56.208Z,20.20
2019-05-09T10:22:26.395Z,20.70
2019-05-09T10:24:54.230Z,22.17
2019-05-09T10:27:21.633Z,21.20
2019-05-09T10:29:49.028Z,22.47
2019-05-09T10:32:18.174Z,22.77
2019-05-09T10:34:48.571Z,22.33
2019-05-09T10:37:14.976Z,22.67
2019-05-09T10:39:42.408Z,20.27
2019-05-09T10:42:29.422Z,25.60
2019-05-09T10:45:07.483Z,18.80
2019-05-09T10:47:37.792Z,22.23
2019-05-09T10:50:08.491Z,21.00
2019-05-09T10:52:36.031Z,20.20
2019-05-09T10:55:03.627Z,18.07
2019-05-09T10:57:32.365Z,17.50
2019-05-09T11:00:00.068Z,19.87
2019-05-09T11:02:28.018Z,17.67
2019-05-09T11:04:57.602Z,19.00
2019-05-09T11:07:24.666Z,17.23
2019-05-09T11:09:52.067Z,16.40
2019-05-09T11:12:19.387Z,19.03
2019-05-09T11:14:48.440Z,19.00
2019-05-09T11:17:19.321Z,18.00
2019-05-09T11:19:44.946Z,17.90
2019-05-09T11:22:12.441Z,14.70
2019-05-09T11:24:46.139Z,20.17
2019-05-09T11:27:08.905Z,18.27
2019-05-09T11:29:38.731Z,20.17
2019-05-09T11:32:07.915Z,20.20
2019-05-09T11:34:34.487Z,18.17
2019-05-09T11:37:01.833Z,16.97
2019-05-09T11:39:36.454Z,17.80
2019-05-09T11:41:58.958Z,19.63
2019-05-09T11:44:27.277Z,21.80
2019-05-09T11:46:54.810Z,20.10
2019-05-09T11:49:22.263Z,21.80
2019-05-09T11:51:49.667Z,18.93
2019-05-09T11:54:19.377Z,19.30
2019-05-09T11:56:48.141Z,19.70
2019-05-09T11:59:15.304Z,17.13
2019-05-09T12:01:42.626Z,13.10
2019-05-09T12:04:09.981Z,15.90
2019-05-09T12:06:38.339Z,16.40
2019-05-09T12:09:08.652Z,18.83
2019-05-09T12:11:41.299Z,16.93
2019-05-09T12:14:05.260Z,17.20
2019-05-09T12:16:32.599Z,16.60
2019-05-09T12:18:59.956Z,16.00
2019-05-09T12:21:28.361Z,14.50
2019-05-09T12:23:57.913Z,16.83
2019-05-09T12:26:25.039Z,16.17
2019-05-09T12:28:52.579Z,17.00
2019-05-09T12:31:20.033Z,18.83
2019-05-09T12:33:48.257Z,28.83
2019-05-09T12:36:18.769Z,18.67
2019-05-09T12:38:48.889Z,20.47
2019-05-09T12:41:14.160Z,16.67
2019-05-09T12:43:41.553Z,19.20
2019-05-09T12:46:09.079Z,18.53
2019-05-09T12:48:36.413Z,17.00
2019-05-09T12:51:03.771Z,17.13
2019-05-09T12:53:31.118Z,19.93
2019-05-09T12:56:01.698Z,24.13
2019-05-09T12:58:29.420Z,23.33
2019-05-09T13:01:00.171Z,22.07
2019-05-09T13:03:27.873Z,24.97
2019-05-09T13:05:57.335Z,21.30
2019-05-09T13:08:24.263Z,22.90
2019-05-09T13:10:51.587Z,21.63
2019-05-09T13:13:19.772Z,26.40
2019-05-09T13:15:49.018Z,27.50
2019-05-09T13:18:24.602Z,21.37
2019-05-09T13:20:48.774Z,24.77
2019-05-09T13:23:17.878Z,22.30
2019-05-09T13:25:45.382Z,20.53
2019-05-09T13:28:12.924Z,21.93
2019-05-09T13:30:40.382Z,20.03
2019-05-09T13:33:10.790Z,23.37
2019-05-09T13:35:39.217Z,21.90
2019-05-09T13:38:08.504Z,18.90
2019-05-09T13:40:34.900Z,18.23
2019-05-09T13:43:02.335Z,20.23
2019-05-09T13:45:29.659Z,18.67
2019-05-09T13:47:57.928Z,19.97
2019-05-09T13:50:25.420Z,24.93
2019-05-09T13:52:52.826Z,21.80
2019-05-09T13:55:20.157Z,23.97
2019-05-09T13:57:48.696Z,20.63
2019-05-09T14:00:18.169Z,22.30
2019-05-09T14:02:45.570Z,22.93
2019-05-09T14:05:13.673Z,22.33
2019-05-09T14:07:40.984Z,23.90
2019-05-09T14:10:10.181Z,26.70
2019-05-09T14:12:37.960Z,24.40
2019-05-09T14:15:08.708Z,27.00
2019-05-09T14:17:48.409Z,25.07
2019-05-09T14:20:08.731Z,26.00
2019-05-09T14:22:35.008Z,31.97
2019-05-09T14:25:02.441Z,27.63
2019-05-09T14:27:29.938Z,39.67
2019-05-09T14:29:59.373Z,29.67
2019-05-09T14:32:26.832Z,35.13
2019-05-09T14:34:54.178Z,38.33
2019-05-09T14:37:21.620Z,44.73
2019-05-09T14:39:57.907Z,45.67
2019-05-09T14:42:18.837Z,43.43
2019-05-09T14:44:47.388Z,40.30
2019-05-09T14:47:17.001Z,40.70
2019-05-09T14:49:44.787Z,39.40
2019-05-09T14:52:12.206Z,40.63
2019-05-09T14:54:39.620Z,39.20
2019-05-09T14:57:09.450Z,40.43
2019-05-09T14:59:38.217Z,42.33
2019-05-09T15:02:05.085Z,40.97
2019-05-09T15:04:32.479Z,44.90
2019-05-09T15:06:59.942Z,43.93
2019-05-09T15:09:28.446Z,45.73
2019-05-09T15:11:58.270Z,43.10
2019-05-09T15:14:24.926Z,42.07
2019-05-09T15:16:52.230Z,46.20
2019-05-09T15:19:19.611Z,42.93
2019-05-09T15:21:48.748Z,49.53
2019-05-09T15:24:19.726Z,51.13
2019-05-09T15:26:47.925Z,60.30
2019-05-09T15:29:15.345Z,58.73
2019-05-09T15:31:42.776Z,65.17
2019-05-09T15:34:10.581Z,59.37
2019-05-09T15:36:38.102Z,45.33
2019-05-09T15:39:08.044Z,43.80
2019-05-09T15:41:35.598Z,42.63
2019-05-09T15:44:02.956Z,41.70
2019-05-09T15:46:31.932Z,38.90
2019-05-09T15:48:59.370Z,32.73
2019-05-09T15:51:27.929Z,30.20
2019-05-09T15:53:57.601Z,32.23
2019-05-09T15:56:24.596Z,27.60
2019-05-09T15:58:52.043Z,24.13
2019-05-09T16:01:19.455Z,27.73
2019-05-09T16:03:48.590Z,28.17
2019-05-09T16:06:18.826Z,30.00
2019-05-09T16:08:45.018Z,31.77
2019-05-09T16:11:13.067Z,28.37
2019-05-09T16:13:40.388Z,31.63
2019-05-09T16:16:08.934Z,27.73
2019-05-09T16:18:36.383Z,28.20
2019-05-09T16:21:03.768Z,30.90
2019-05-09T16:23:31.082Z,33.53
2019-05-09T16:25:58.759Z,37.60
2019-05-09T16:28:26.317Z,35.63
2019-05-09T16:30:53.646Z,34.03
2019-05-09T16:33:20.991Z,34.03
2019-05-09T16:35:50.749Z,32.07
2019-05-09T16:38:18.508Z,29.73
2019-05-09T16:40:47.923Z,29.00
2019-05-09T16:43:17.637Z,25.27
2019-05-09T16:45:44.532Z,23.93
2019-05-09T16:48:11.930Z,25.67
2019-05-09T16:50:56.780Z,29.37
2019-05-09T16:53:09.669Z,27.47
2019-05-09T16:55:39.109Z,24.27
2019-05-09T16:58:08.486Z,24.10
2019-05-09T17:00:43.393Z,25.47
2019-05-09T17:03:10.723Z,25.50
2019-05-09T17:05:38.051Z,26.10
2019-05-09T17:08:05.407Z,28.50
2019-05-09T17:10:33.320Z,29.97
2019-05-09T17:13:00.679Z,29.63
2019-05-09T17:15:29.258Z,29.87
2019-05-09T17:17:56.774Z,33.00
2019-05-09T17:20:28.485Z,38.57
2019-05-09T17:23:14.472Z,37.10
2019-05-09T17:25:38.618Z,41.80
2019-05-09T17:28:06.024Z,42.70
2019-05-09T17:30:33.372Z,42.53
2019-05-09T17:33:00.969Z,45.43
2019-05-09T17:35:28.364Z,44.13
2019-05-09T17:37:55.701Z,45.03
2019-05-09T17:40:23.033Z,51.60
2019-05-09T17:42:50.464Z,55.83
2019-05-09T17:45:18.034Z,54.33
2019-05-09T17:47:45.506Z,60.50
2019-05-09T17:50:12.888Z,54.67
2019-05-09T17:52:40.257Z,60.47
2019-05-09T17:55:07.636Z,54.80
2019-05-09T17:57:35.082Z,54.90
2019-05-09T18:00:02.498Z,60.73
2019-05-09T18:02:29.937Z,57.27
2019-05-09T18:04:58.232Z,58.00
2019-05-09T18:07:27.900Z,51.10
2019-05-09T18:09:54.717Z,58.60
2019-05-09T18:12:22.149Z,57.30
2019-05-09T18:14:49.547Z,56.10
2019-05-09T18:17:17.981Z,52.77
2019-05-09T18:19:45.615Z,53.30
2019-05-09T18:22:13.089Z,47.67
2019-05-09T18:24:40.561Z,51.87
2019-05-09T18:27:08.243Z,55.53
2019-05-09T18:29:37.852Z,54.17
2019-05-09T18:32:12.163Z,59.97
2019-05-09T18:34:39.573Z,56.57
2019-05-09T18:37:08.047Z,61.93
2019-05-09T18:39:37.455Z,57.07
2019-05-09T18:42:04.739Z,59.00
2019-05-09T18:44:32.195Z,57.20
2019-05-09T18:46:59.651Z,53.23
2019-05-09T18:49:27.006Z,54.53
2019-05-09T18:52:03.461Z,49.53
2019-05-09T18:54:23.375Z,54.37
2019-05-09T18:56:50.716Z,50.07
2019-05-09T18:59:18.143Z,53.70
2019-05-09T19:01:45.579Z,50.40
2019-05-09T19:04:12.989Z,47.73
2019-05-09T19:06:40.312Z,49.33
2019-05-09T19:09:07.729Z,48.17
2019-05-09T19:11:35.104Z,41.50
2019-05-09T19:14:03.882Z,47.03
2019-05-09T19:16:38.873Z,43.60
2019-05-09T19:19:24.361Z,41.63
2019-05-09T19:21:56.189Z,45.63
2019-05-09T19:24:23.629Z,46.77
2019-05-09T19:26:50.998Z,45.67
2019-05-09T19:29:18.386Z,47.63
2019-05-09T19:31:45.779Z,42.83
2019-05-09T19:34:13.131Z,48.47
2019-05-09T19:36:40.503Z,47.30
2019-05-09T19:39:08.364Z,49.40
2019-05-09T19:41:36.145Z,48.37
2019-05-09T19:44:03.573Z,45.17
2019-05-09T19:46:30.897Z,47.53
2019-05-09T19:48:58.235Z,51.60
2019-05-09T19:51:25.613Z,47.20
2019-05-09T19:53:54.079Z,48.50
2019-05-09T19:56:21.685Z,51.93
2019-05-09T19:58:49.556Z,50.27
2019-05-09T20:01:17.023Z,45.73
2019-05-09T20:03:44.373Z,50.63
2019-05-09T20:06:11.698Z,48.47
2019-05-09T20:08:39.089Z,46.47
2019-05-09T20:11:24.735Z,53.17
2019-05-09T20:13:59.663Z,55.83
2019-05-09T20:16:40.844Z,53.30
2019-05-09T20:19:08.458Z,54.57
2019-05-09T20:21:35.803Z,53.90
2019-05-09T20:24:03.126Z,55.87
2019-05-09T20:26:30.735Z,58.17
2019-05-09T20:28:58.124Z,57.10
2019-05-09T20:31:25.477Z,55.80
2019-05-09T20:33:52.791Z,59.53
2019-05-09T20:36:20.161Z,58.67
2019-05-09T20:38:47.901Z,56.73
2019-05-09T20:41:15.382Z,62.77
2019-05-09T20:43:42.900Z,62.43
2019-05-09T20:46:10.603Z,61.37
2019-05-09T20:48:38.234Z,62.07
2019-05-09T20:51:05.865Z,62.80
2019-05-09T20:53:33.561Z,66.00
2019-05-09T20:56:01.131Z,63.90
2019-05-09T20:58:28.658Z,60.50
2019-05-09T21:00:56.180Z,60.93
2019-05-09T21:03:23.688Z,60.20
2019-05-09T21:05:51.295Z,59.67
2019-05-09T21:08:18.857Z,60.60
2019-05-09T21:10:46.510Z,62.77
2019-05-09T21:13:14.063Z,65.63
2019-05-09T21:15:41.603Z,64.00
2019-05-09T21:18:09.274Z,66.87
2019-05-09T21:20:36.791Z,66.97
2019-05-09T21:23:04.421Z,64.97
2019-05-09T21:25:33.474Z,66.47
2019-05-09T21:28:01.340Z,62.57
2019-05-09T21:30:28.867Z,61.70
2019-05-09T21:32:56.524Z,66.13
2019-05-09T21:35:23.864Z,62.90
2019-05-09T21:37:51.257Z,60.93
2019-05-09T21:40:19.273Z,59.37
2019-05-09T21:42:46.609Z,59.90
2019-05-09T21:45:14.528Z,63.97
2019-05-09T21:47:41.907Z,61.63
2019-05-09T21:50:09.241Z,61.73
2019-05-09T21:52:36.572Z,65.03
2019-05-09T21:55:04.098Z,64.50
2019-05-09T21:57:31.424Z,67.77
2019-05-09T21:59:58.760Z,68.03
2019-05-09T22:02:26.155Z,72.90
2019-05-09T22:04:53.485Z,70.97
2019-05-09T22:07:20.824Z,72.60
2019-05-09T22:09:48.162Z,71.83
2019-05-09T22:12:15.489Z,76.23
2019-05-09T22:14:42.973Z,77.57
2019-05-09T22:17:15.031Z,76.60
2019-05-09T22:19:42.452Z,76.80
2019-05-09T22:22:09.775Z,80.83
2019-05-09T22:24:37.118Z,86.23
2019-05-09T22:27:04.537Z,84.60
2019-05-09T22:29:31.885Z,81.73
2019-05-09T22:31:59.473Z,83.33
2019-05-09T22:34:26.898Z,78.07
2019-05-09T22:36:54.216Z,74.70
2019-05-09T22:39:21.583Z,78.03
2019-05-09T22:41:48.943Z,70.63
2019-05-09T22:44:16.285Z,72.67
2019-05-09T22:46:43.706Z,76.77
2019-05-09T22:49:11.015Z,74.47
2019-05-09T22:51:38.368Z,82.23
2019-05-09T22:54:12.843Z,75.53
2019-05-09T22:56:34.760Z,73.70
2019-05-09T22:59:02.627Z,78.27
2019-05-09T23:01:30.030Z,73.87
2019-05-09T23:03:57.359Z,81.57
2019-05-09T23:06:24.714Z,81.43
2019-05-09T23:08:52.140Z,75.90
2019-05-09T23:11:19.466Z,77.93
2019-05-09T23:13:52.556Z,77.80
2019-05-09T23:16:21.515Z,82.23
2019-05-09T23:18:48.965Z,76.83
2019-05-09T23:21:16.314Z,73.03
2019-05-09T23:23:44.042Z,78.00
2019-05-09T23:26:13.044Z,74.30
2019-05-09T23:28:40.402Z,79.80
2019-05-09T23:31:09.383Z,72.57
2019-05-09T23:33:38.381Z,75.40
2019-05-09T23:36:05.706Z,69.00
2019-05-09T23:38:33.044Z,75.97
2019-05-09T23:41:00.389Z,74.90
2019-05-09T23:43:27.719Z,66.17
2019-05-09T23:45:55.094Z,68.37
2019-05-09T23:48:22.429Z,72.17
2019-05-09T23:50:49.779Z,66.20
2019-05-09T23:53:18.735Z,64.07
2019-05-09T23:56:03.813Z,60.60
2019-05-09T23:58:49.117Z,62.10
